This is the latest recevied weather packets stored in our database for station/object KB4JHU-15. If no packets are shown the sender has not sent any weather packets the latest 10 day(s).
| Time | Temp. | Humidity | Pressure | Rain* | Wind** | Luminosity | Snow |
|---|---|---|---|---|---|---|---|
| 1778009810 | 22.78° C | 47% | - | 0 mm | - | - | - |
| 1778008009 | 22.78° C | 45% | - | 0 mm | - | - | - |
| 1778006208 | 23.33° C | 50% | - | 0 mm | - | - | - |
| 1778004407 | 22.78° C | 51% | - | 0 mm | - | - | - |
| 1778002606 | 22.78° C | 49% | - | 0 mm | - | - | - |
| 1778000805 | 22.78° C | 49% | - | 0 mm | - | - | - |
| 1777999004 | 22.78° C | 53% | - | 0 mm | - | - | - |
| 1777997203 | 22.22° C | 57% | - | 0 mm | - | - | - |
| 1777995402 | 21.11° C | 58% | - | 0 mm | - | - | - |
| 1777993601 | 20.56° C | 63% | - | 0 mm | - | - | - |
| 1777991800 | 20° C | 63% | - | 0 mm | - | - | - |
| 1777989999 | 19.44° C | 68% | - | 0 mm | - | - | - |
| 1777988198 | 17.78° C | 71% | - | 0 mm | - | - | - |
| 1777986397 | 16.11° C | 78% | - | 0 mm | - | - | - |
| 1777984596 | 13.89° C | 88% | - | 0 mm | - | - | - |
| 1777982795 | 11.67° C | 92% | - | 0 mm | - | - | - |
| 1777980994 | 11.11° C | 93% | - | 0 mm | - | - | - |
| 1777979193 | 11.11° C | 95% | - | 0 mm | - | - | - |
| 1777977392 | 10.56° C | 94% | - | 0 mm | - | - | - |
| 1777975591 | 10.56° C | 92% | - | 0 mm | - | - | - |
| 1777973790 | 11.11° C | 90% | - | 0 mm | - | - | - |
| 1777971989 | 11.67° C | 89% | - | 0 mm | - | - | - |
| 1777970188 | 12.78° C | 87% | - | 0 mm | - | - | - |
| 1777968387 | 12.22° C | 86% | - | 0 mm | - | - | - |
| 1777966586 | 13.33° C | 86% | - | 0 mm | - | - | - |
* Rain latest hour (hover to see other rain measurements)
** Current wind speed in m/s (hover to see current wind gust speed)